Monroe, Nebraska
Current Conditions -  °F | °C
As of 3:35 AM on Friday 31 Oct 2014 (Local Time) from KBVN Reporting Station
Overcast Overcast  
Wind Chill: 25°   Ceiling: 2400
Heat Index: 33°   Visibility: 10mi
Dew Point: 23°   Wind: 10mph
Humidity: 68%   Direction: 360°N
Pressure: 30.5"   Gusts: NA
Location:  41.47°N, 97.6°W
Report Text: KBVN 310835Z AUTO 36009KT 10SM OVC024 01/M05 A3050 RMK AO2 T00051048
Loading
Personal Weather Stations






























Interactive Weather Map
Tropical Storm Tracking
New forecast layout! Learn more

10-Day Weather Forecast

Advertisements
Track Severe Weather on mobile